Pagina principale
METAR-TAF:

METAR-TAF

Aeroporti :

Viterbo, Italia

Aeroporto di Viterbo

latitudine: 42-26N, longitudine: 012-03E, altezza: 300 m

Osservazione

Il bollettino è stato emesso 18 ore e 17 minuti fa, alle 17:55 UTC
Vento 10 kt da nord/nord-est
Temperature 8°C
Umidità 76%
Pressione 1015 hPa
Visibilità 10 km o più
nessuna nube inferiore a 1500 m e nessun cumulonembo

METAR: LIRV 181755Z 03010KT CAVOK 08/04 Q1015 RMK SKC MON E SE LIB NC VIS MIN 9999 BLU

Ora: 13:12 (12:12 UTC)

Previsione

Il bollettino è stato emesso 22 ore e 12 minuti fa, alle 14:00 UTC
Previsione valida dal 18 alle 15 UTC al 18 alle 24 UTC
Vento 12 kt da nord/nord-est
Visibilità 10 km o più
nessuna nube inferiore a 1500 m e nessun cumulonembo
Probabilità 30% :
Temporaneamente
dal 18 alle 15 UTC al 18 alle 17 UTC
Vento 12 kt da nord/nord-est con raffiche fino a 22 kt

TAF: LIRV 181400Z 1815/1824 02012KT CAVOK PROB30 TEMPO 1815/1817 03012G22KT

Osservazioni e previsioni meteorologiche di più di 4000 aeroporti (messaggi METAR e TAF).

Le stazioni disponibili sono rappresentate dai dischi gialli e rossi sulla carta.

Puntare il mouse per vedere il nome della stazione.

Clicca sopra per visualizzare le osservazioni e previsioni meteorologiche.

Per cambiare la mappa : fare clic sui pulsanti verdi con una croce nera per ingrandire, il pulsante verde con un trattino per diminuire, o sulla freccia verde per le mappe adiacenti.


METAR-TAF: